Time;durP1;ratioP1;P1;durP2;ratioP2;P2;SDS_P1;SDS_P2;PMS_P1;PMS_P2;Temp;Humidity;BMP_temperature;BMP_pressure;BME280_temperature;BME280_humidity;BME280_pressure;Samples;Min_cycle;Max_cycle;Signal;HPM_P1;HPM_P2
2022/07/05 00:00:27;;;;;;;3.03;1.58;;;20.10;45.40;;;;;;5001385;28;20417;-60
2022/07/05 00:02:55;;;;;;;3.40;1.25;;;20.00;45.20;;;;;;5001226;28;20490;-59
2022/07/05 00:05:22;;;;;;;2.17;1.15;;;19.90;45.20;;;;;;5002476;28;20061;-61
2022/07/05 00:07:49;;;;;;;2.70;1.20;;;19.90;45.20;;;;;;5002439;28;20061;-61
2022/07/05 00:10:17;;;;;;;3.10;1.00;;;19.80;45.20;;;;;;5003459;28;20522;-61
2022/07/05 00:12:46;;;;;;;7.18;1.23;;;19.80;45.40;;;;;;5001171;28;20054;-59
2022/07/05 00:15:13;;;;;;;1.85;0.65;;;19.70;45.80;;;;;;5002770;28;20497;-61
2022/07/05 00:17:41;;;;;;;5.13;0.82;;;19.70;46.00;;;;;;5002021;28;20418;-61
2022/07/05 00:20:09;;;;;;;5.55;0.80;;;19.70;46.10;;;;;;5001783;28;20513;-60
2022/07/05 00:22:37;;;;;;;1.52;0.90;;;19.60;46.20;;;;;;5002194;28;20084;-59
2022/07/05 00:25:05;;;;;;;1.88;0.80;;;19.60;46.30;;;;;;5000932;28;20053;-58
2022/07/05 00:27:32;;;;;;;2.28;1.00;;;19.60;46.50;;;;;;5002294;28;20057;-61
2022/07/05 00:30:01;;;;;;;1.80;1.10;;;19.60;46.60;;;;;;5004403;28;20129;-61
2022/07/05 00:32:29;;;;;;;4.20;1.30;;;19.60;46.80;;;;;;5003705;28;20061;-57
2022/07/05 00:34:56;;;;;;;2.97;1.35;;;19.60;46.90;;;;;;5005959;28;20486;-56
2022/07/05 00:37:24;;;;;;;3.35;1.67;;;19.50;47.00;;;;;;5005070;28;20065;-60
2022/07/05 00:39:51;;;;;;;3.20;0.90;;;19.50;47.00;;;;;;5005999;28;20057;-60
2022/07/05 00:42:19;;;;;;;3.72;1.10;;;19.50;47.00;;;;;;5004379;28;20057;-60
2022/07/05 00:44:46;;;;;;;1.40;1.00;;;19.50;47.10;;;;;;5005677;28;20088;-58
2022/07/05 00:47:15;;;;;;;2.88;1.17;;;19.50;47.50;;;;;;5003206;28;20057;-58
2022/07/05 00:49:44;;;;;;;2.67;1.45;;;19.50;47.00;;;;;;5006514;28;20395;-61
2022/07/05 00:52:12;;;;;;;2.55;1.25;;;19.50;47.00;;;;;;5004600;28;20077;-61
2022/07/05 00:54:40;;;;;;;3.25;1.10;;;19.50;47.10;;;;;;5004829;28;20053;-59
2022/07/05 00:57:08;;;;;;;2.55;1.05;;;19.50;47.20;;;;;;5005912;28;20058;-61
2022/07/05 00:59:35;;;;;;;4.50;1.20;;;19.50;47.20;;;;;;5005425;28;20057;-60
2022/07/05 01:02:03;;;;;;;2.03;1.00;;;19.50;47.20;;;;;;5004345;28;20433;-61
2022/07/05 01:04:32;;;;;;;3.30;1.20;;;19.40;47.30;;;;;;5004049;28;20529;-61
2022/07/05 01:07:00;;;;;;;1.92;1.00;;;19.40;47.80;;;;;;5005426;28;20572;-61
2022/07/05 01:09:28;;;;;;;2.35;1.10;;;19.40;47.40;;;;;;5004376;28;20054;-61
2022/07/05 01:11:56;;;;;;;5.68;1.38;;;19.40;47.50;;;;;;5004740;28;20054;-59
2022/07/05 01:14:24;;;;;;;4.60;1.38;;;19.30;47.60;;;;;;5005544;28;20054;-61
2022/07/05 01:16:54;;;;;;;4.30;1.80;;;19.30;47.70;;;;;;5005030;28;20057;-60
2022/07/05 01:19:22;;;;;;;5.80;1.58;;;19.20;47.90;;;;;;5004531;28;20076;-61
2022/07/05 01:21:51;;;;;;;4.32;1.73;;;19.20;48.20;;;;;;5004641;28;20064;-61
2022/07/05 01:24:21;;;;;;;4.63;1.40;;;19.20;48.60;;;;;;5005387;28;20391;-61
2022/07/05 01:26:50;;;;;;;2.72;1.75;;;19.10;48.80;;;;;;5004914;28;20417;-61
2022/07/05 01:29:18;;;;;;;3.38;1.58;;;19.10;49.10;;;;;;5003328;28;20065;-50
2022/07/05 01:31:45;;;;;;;7.78;1.98;;;19.10;49.10;;;;;;5003123;28;20057;-61
2022/07/05 01:34:13;;;;;;;4.35;1.50;;;19.10;49.10;;;;;;5004046;28;20054;-61
2022/07/05 01:36:41;;;;;;;5.25;1.40;;;19.10;49.30;;;;;;5004856;28;20064;-62
2022/07/05 01:39:09;;;;;;;3.67;1.50;;;19.10;49.40;;;;;;5002489;28;20053;-62
2022/07/05 01:41:38;;;;;;;3.83;1.52;;;19.10;49.30;;;;;;5003444;28;20077;-59
2022/07/05 01:44:05;;;;;;;2.13;1.30;;;19.10;49.20;;;;;;5003481;28;20053;-61
2022/07/05 01:46:36;;;;;;;4.55;2.15;;;19.10;49.30;;;;;;4999873;28;20062;-61
2022/07/05 01:49:06;;;;;;;4.75;1.67;;;19.10;49.30;;;;;;5004408;28;20065;-61
2022/07/05 01:51:45;;;;;;;2.10;1.40;;;19.00;49.40;;;;;;5004020;28;20050;-59
2022/07/05 01:54:13;;;;;;;9.68;2.63;;;19.00;49.70;;;;;;5005595;28;20069;-61
2022/07/05 01:56:42;;;;;;;2.05;1.75;;;19.00;49.70;;;;;;5004810;28;20060;-59
2022/07/05 01:59:09;;;;;;;6.18;2.67;;;19.00;49.80;;;;;;5004047;28;20052;-58
2022/07/05 02:01:39;;;;;;;4.18;1.55;;;19.00;50.20;;;;;;5004306;28;20053;-61
2022/07/05 02:04:08;;;;;;;1.75;1.30;;;19.00;49.80;;;;;;5004164;28;20057;-60
2022/07/05 02:06:36;;;;;;;1.52;1.10;;;18.90;49.50;;;;;;5005172;28;20056;-61
2022/07/05 02:09:05;;;;;;;2.13;1.00;;;18.90;49.30;;;;;;5003179;28;20042;-61
2022/07/05 02:11:32;;;;;;;2.20;1.17;;;18.90;49.30;;;;;;5003301;28;20049;-61
2022/07/05 02:14:02;;;;;;;12.10;1.52;;;18.90;49.20;;;;;;5003040;28;20054;-61
2022/07/05 02:16:30;;;;;;;1.70;1.25;;;18.90;49.30;;;;;;5003358;28;20121;-61
2022/07/05 02:18:57;;;;;;;2.05;1.20;;;18.80;49.30;;;;;;5003899;28;20061;-62
2022/07/05 02:21:25;;;;;;;2.10;1.52;;;18.80;49.30;;;;;;5003294;28;20510;-59
2022/07/05 02:23:53;;;;;;;3.58;1.73;;;18.80;49.50;;;;;;5004315;28;20054;-61
2022/07/05 02:26:20;;;;;;;3.70;1.80;;;18.80;49.60;;;;;;5003967;28;20057;-59
2022/07/05 02:28:48;;;;;;;2.25;1.42;;;18.70;49.60;;;;;;5002684;28;20054;-59
2022/07/05 02:31:19;;;;;;;3.53;1.50;;;18.70;49.70;;;;;;5004858;28;20057;-61
2022/07/05 02:33:47;;;;;;;3.65;1.75;;;18.60;49.70;;;;;;5004184;28;20494;-61
2022/07/05 02:36:15;;;;;;;6.88;1.88;;;18.60;49.90;;;;;;5003290;28;20053;-61
2022/07/05 02:38:42;;;;;;;4.53;1.90;;;18.60;50.00;;;;;;5001902;28;20420;-62
2022/07/05 02:41:11;;;;;;;2.95;1.90;;;18.60;50.10;;;;;;5003306;28;20056;-61
2022/07/05 02:43:39;;;;;;;2.65;1.30;;;18.50;50.30;;;;;;5004556;28;20053;-61
2022/07/05 02:46:08;;;;;;;3.65;1.83;;;18.50;50.30;;;;;;5004400;28;20275;-60
2022/07/05 02:48:38;;;;;;;4.53;1.95;;;18.50;50.30;;;;;;4997760;28;20513;-61
2022/07/05 02:51:07;;;;;;;2.53;1.50;;;18.50;50.40;;;;;;5001978;28;20516;-60
2022/07/05 02:53:35;;;;;;;4.78;1.70;;;18.50;50.30;;;;;;5004109;28;20509;-61
2022/07/05 02:56:03;;;;;;;2.80;1.48;;;18.40;50.30;;;;;;5002375;28;20529;-61
2022/07/05 02:58:30;;;;;;;5.93;1.45;;;18.40;50.40;;;;;;5003709;28;20061;-60
2022/07/05 03:00:58;;;;;;;4.32;1.80;;;18.40;50.40;;;;;;5004385;28;20421;-61
2022/07/05 03:03:25;;;;;;;4.03;1.88;;;18.40;50.60;;;;;;5003245;28;21172;-62
2022/07/05 03:05:54;;;;;;;3.78;1.75;;;18.30;50.50;;;;;;5005635;28;20068;-61
2022/07/05 03:08:22;;;;;;;3.22;2.05;;;18.30;50.60;;;;;;5004352;28;20054;-61
2022/07/05 03:10:49;;;;;;;4.85;1.88;;;18.30;50.70;;;;;;5003973;28;20445;-61
2022/07/05 03:13:17;;;;;;;3.63;1.75;;;18.30;50.80;;;;;;5004532;28;20049;-59
2022/07/05 03:15:44;;;;;;;5.20;2.22;;;18.20;50.90;;;;;;5004176;28;20532;-58
2022/07/05 03:18:12;;;;;;;4.40;2.00;;;18.20;51.00;;;;;;5005250;28;20064;-61
2022/07/05 03:20:39;;;;;;;3.08;1.83;;;18.20;51.10;;;;;;5004452;28;20053;-59
2022/07/05 03:23:08;;;;;;;3.75;2.22;;;18.20;51.20;;;;;;5004294;28;20057;-58
2022/07/05 03:25:36;;;;;;;5.97;2.08;;;18.10;51.30;;;;;;5004983;28;20054;-61
2022/07/05 03:28:04;;;;;;;3.75;2.05;;;18.10;51.40;;;;;;5004813;28;20061;-61
2022/07/05 03:30:31;;;;;;;7.50;3.50;;;18.10;51.50;;;;;;5004057;28;20049;-61
2022/07/05 03:32:59;;;;;;;5.45;3.10;;;18.10;51.80;;;;;;5004163;28;20064;-61
2022/07/05 03:35:27;;;;;;;6.63;3.35;;;18.10;52.10;;;;;;5003867;28;20058;-61
2022/07/05 03:37:55;;;;;;;6.63;2.70;;;18.00;52.30;;;;;;5004308;28;20065;-61
2022/07/05 03:40:24;;;;;;;3.38;2.28;;;18.00;52.30;;;;;;5004001;28;20057;-60
2022/07/05 03:42:51;;;;;;;4.90;2.40;;;18.00;52.40;;;;;;5001978;28;20062;-60
2022/07/05 03:45:19;;;;;;;5.60;2.35;;;18.00;52.30;;;;;;5004590;28;20054;-61
2022/07/05 03:47:47;;;;;;;3.65;2.20;;;18.00;52.40;;;;;;5004123;28;20061;-61
2022/07/05 03:50:14;;;;;;;4.18;2.42;;;18.00;52.30;;;;;;5002031;28;20050;-61
2022/07/05 03:52:42;;;;;;;3.20;2.10;;;18.00;52.30;;;;;;5002976;28;20046;-61
2022/07/05 03:55:10;;;;;;;3.35;2.17;;;18.00;52.30;;;;;;5003663;28;20058;-59
2022/07/05 03:57:39;;;;;;;5.15;2.35;;;17.90;52.30;;;;;;5003716;28;20050;-61
2022/07/05 04:00:08;;;;;;;4.32;2.20;;;17.90;52.30;;;;;;5004108;28;20050;-61
2022/07/05 04:02:35;;;;;;;3.90;2.05;;;17.90;52.40;;;;;;4997453;28;20046;-61
2022/07/05 04:05:03;;;;;;;4.30;2.28;;;17.90;52.40;;;;;;5005546;28;20076;-61
2022/07/05 04:07:30;;;;;;;7.63;2.33;;;17.90;52.40;;;;;;5007514;28;20060;-61
2022/07/05 04:09:58;;;;;;;4.47;2.17;;;17.90;52.40;;;;;;5007060;28;20505;-61
2022/07/05 04:12:26;;;;;;;4.38;1.98;;;17.90;52.50;;;;;;5005371;28;20509;-61
2022/07/05 04:14:54;;;;;;;5.47;2.05;;;17.90;52.50;;;;;;5005976;28;20050;-60
2022/07/05 04:17:22;;;;;;;4.05;2.00;;;17.90;52.50;;;;;;5004390;28;20420;-61
2022/07/05 04:19:49;;;;;;;5.80;2.55;;;17.90;52.40;;;;;;5004775;28;20054;-61
2022/07/05 04:22:17;;;;;;;5.70;1.92;;;17.90;52.50;;;;;;5006305;28;20057;-61
2022/07/05 04:27:28;;;;;;;6.68;2.28;;;17.80;52.60;;;;;;4999631;28;20050;-61
2022/07/05 04:29:57;;;;;;;4.90;2.50;;;17.90;52.70;;;;;;5007559;28;20056;-61
2022/07/05 04:32:25;;;;;;;4.93;2.33;;;17.90;52.80;;;;;;5004149;28;20084;-61
2022/07/05 04:34:52;;;;;;;5.20;2.25;;;17.90;52.80;;;;;;5006622;28;20513;-60
2022/07/05 04:37:20;;;;;;;4.22;2.10;;;17.90;53.00;;;;;;5006556;28;20065;-60
2022/07/05 04:39:47;;;;;;;3.58;2.10;;;17.80;53.00;;;;;;5005107;28;20332;-60
2022/07/05 04:42:14;;;;;;;7.43;3.00;;;17.90;53.20;;;;;;5005549;28;20064;-60
2022/07/05 04:44:42;;;;;;;3.30;2.63;;;17.90;53.30;;;;;;5004952;28;20057;-60
2022/07/05 04:47:11;;;;;;;4.72;2.63;;;17.90;53.40;;;;;;5005564;28;20057;-58
2022/07/05 04:49:38;;;;;;;6.13;2.65;;;17.90;53.60;;;;;;5005975;28;20532;-57
2022/07/05 04:52:06;;;;;;;4.70;2.42;;;17.90;53.70;;;;;;5005831;28;20064;-60
2022/07/05 04:54:33;;;;;;;4.97;2.30;;;17.90;53.70;;;;;;5006901;28;20073;-60
2022/07/05 04:57:01;;;;;;;5.55;2.35;;;18.00;53.80;;;;;;5005737;28;20449;-60
2022/07/05 04:59:28;;;;;;;6.95;2.80;;;18.00;54.00;;;;;;5004590;28;20058;-60
2022/07/05 05:01:56;;;;;;;4.07;2.70;;;18.00;54.10;;;;;;5003946;28;20052;-60
2022/07/05 05:04:24;;;;;;;6.07;2.97;;;18.00;54.20;;;;;;5005857;28;20049;-60
2022/07/05 05:06:52;;;;;;;4.90;2.72;;;18.10;54.50;;;;;;5005163;28;20050;-60
2022/07/05 05:09:20;;;;;;;4.68;2.78;;;18.10;54.40;;;;;;5004839;28;20057;-60
2022/07/05 05:11:48;;;;;;;7.25;2.78;;;18.20;54.70;;;;;;5004070;28;20050;-61
2022/07/05 05:14:15;;;;;;;4.43;2.75;;;18.20;54.70;;;;;;5003286;28;20072;-61
2022/07/05 05:16:43;;;;;;;5.28;2.53;;;18.20;54.80;;;;;;5002684;28;20049;-61
2022/07/05 05:19:10;;;;;;;6.07;3.22;;;18.30;54.80;;;;;;5005276;28;20054;-61
2022/07/05 05:21:39;;;;;;;8.32;3.17;;;18.30;55.00;;;;;;5004524;28;20061;-55
2022/07/05 05:24:07;;;;;;;5.93;2.78;;;18.30;55.30;;;;;;5004795;28;20401;-60
2022/07/05 05:26:35;;;;;;;10.13;4.55;;;18.30;55.20;;;;;;5004663;28;20068;-60
2022/07/05 05:29:03;;;;;;;6.20;3.42;;;18.40;55.50;;;;;;5003583;28;20426;-59
2022/07/05 05:31:31;;;;;;;5.20;2.38;;;18.40;55.40;;;;;;5003861;28;20056;-57
2022/07/05 05:33:59;;;;;;;6.20;4.63;;;18.40;55.50;;;;;;5005887;28;20061;-60
2022/07/05 05:36:27;;;;;;;15.95;5.93;;;18.40;55.60;;;;;;5003337;28;20046;-60
2022/07/05 05:38:56;;;;;;;6.95;4.55;;;18.40;55.50;;;;;;5006464;28;20054;-60
2022/07/05 05:41:28;;;;;;;8.65;4.78;;;18.40;55.80;;;;;;5002360;28;20061;-59
2022/07/05 05:43:56;;;;;;;7.30;4.35;;;18.50;55.80;;;;;;5006177;28;20058;-59
2022/07/05 05:46:25;;;;;;;8.35;5.18;;;18.50;55.50;;;;;;5003543;28;20053;-57
2022/07/05 05:48:52;;;;;;;12.60;5.88;;;18.50;55.60;;;;;;5003928;28;20053;-59
2022/07/05 05:51:20;;;;;;;8.63;5.72;;;18.60;55.80;;;;;;5003701;28;20049;-60
2022/07/05 05:53:47;;;;;;;9.13;5.13;;;18.60;55.90;;;;;;5002391;28;20061;-59
2022/07/05 05:56:16;;;;;;;10.68;5.15;;;18.60;55.70;;;;;;5003938;28;20065;-57
2022/07/05 05:58:44;;;;;;;11.32;6.85;;;18.70;56.00;;;;;;5002491;28;20061;-60
2022/07/05 06:01:11;;;;;;;8.13;6.22;;;18.70;56.20;;;;;;4998147;28;20493;-59
2022/07/05 06:03:39;;;;;;;10.60;7.10;;;18.70;56.10;;;;;;5005025;28;20061;-55
2022/07/05 06:06:06;;;;;;;8.77;5.40;;;18.70;56.10;;;;;;5005000;28;20054;-56
2022/07/05 06:08:34;;;;;;;8.73;4.97;;;18.70;56.20;;;;;;5005195;28;20058;-54
2022/07/05 06:11:04;;;;;;;16.02;6.20;;;18.70;56.30;;;;;;5001322;28;20056;-57
2022/07/05 06:13:32;;;;;;;14.07;6.45;;;18.70;56.40;;;;;;5005261;28;20383;-53
2022/07/05 06:16:00;;;;;;;12.90;6.40;;;18.80;56.40;;;;;;5003292;28;20065;-57
2022/07/05 06:18:28;;;;;;;11.85;5.22;;;18.80;56.40;;;;;;5020101;28;20383;-53
2022/07/05 06:20:55;;;;;;;6.75;4.40;;;18.90;56.50;;;;;;5020377;28;20042;-53
2022/07/05 06:23:23;;;;;;;13.00;6.03;;;18.90;56.50;;;;;;5014676;28;20053;-53
2022/07/05 06:25:50;;;;;;;10.95;5.20;;;19.00;56.50;;;;;;5020075;28;20401;-59
2022/07/05 06:28:18;;;;;;;8.90;5.20;;;19.10;56.30;;;;;;5009772;28;20061;-57
2022/07/05 06:30:47;;;;;;;12.38;6.18;;;19.20;56.00;;;;;;5011883;28;20710;-58
2022/07/05 06:33:14;;;;;;;6.47;4.43;;;19.20;55.70;;;;;;5013416;28;20045;-58
2022/07/05 06:35:41;;;;;;;8.50;5.38;;;19.30;55.80;;;;;;5014171;28;20505;-58
2022/07/05 06:38:10;;;;;;;9.85;5.88;;;19.30;55.80;;;;;;5015674;28;20064;-54
2022/07/05 06:40:39;;;;;;;13.45;6.45;;;19.40;55.60;;;;;;5014067;28;20611;-58
2022/07/05 06:43:07;;;;;;;10.52;6.38;;;19.50;55.50;;;;;;5010843;28;20513;-57
2022/07/05 06:45:35;;;;;;;12.15;6.63;;;19.50;55.50;;;;;;5011522;28;20049;-54
2022/07/05 06:48:06;;;;;;;10.88;7.43;;;19.50;56.00;;;;;;5009202;28;20058;-56
2022/07/05 06:50:36;;;;;;;9.18;6.68;;;19.40;56.10;;;;;;5013381;28;20060;-54
2022/07/05 06:53:04;;;;;;;13.50;6.38;;;19.40;55.70;;;;;;5013946;28;20057;-55
2022/07/05 06:55:31;;;;;;;9.82;5.90;;;19.40;55.90;;;;;;5010943;28;20045;-50
2022/07/05 06:58:00;;;;;;;11.57;6.43;;;19.40;56.10;;;;;;5008853;28;20405;-57
2022/07/05 07:00:28;;;;;;;14.57;7.72;;;19.40;56.00;;;;;;5010765;28;20057;-53
2022/07/05 07:02:56;;;;;;;12.27;6.50;;;19.40;55.60;;;;;;5013230;28;20058;-52
2022/07/05 07:05:25;;;;;;;9.40;5.45;;;19.40;56.00;;;;;;5010897;28;20505;-57
2022/07/05 07:10:37;;;;;;;7.75;4.72;;;19.50;55.90;;;;;;5023705;28;20056;-55
2022/07/05 07:13:04;;;;;;;8.73;6.05;;;19.60;55.80;;;;;;5017161;28;20068;-54
2022/07/05 07:15:33;;;;;;;9.77;5.88;;;19.60;55.50;;;;;;5012357;28;20061;-52
2022/07/05 07:18:01;;;;;;;10.73;5.75;;;19.70;55.40;;;;;;5012105;28;20508;-56
2022/07/05 07:20:30;;;;;;;10.68;6.35;;;19.80;55.30;;;;;;5016415;28;20057;-53
2022/07/05 07:22:57;;;;;;;10.18;5.63;;;19.80;54.40;;;;;;5013276;28;20064;-58
2022/07/05 07:25:25;;;;;;;8.43;5.15;;;19.80;54.60;;;;;;5014588;28;20481;-59
2022/07/05 07:27:55;;;;;;;9.23;5.70;;;19.90;55.00;;;;;;5019476;28;20519;-55
2022/07/05 07:30:24;;;;;;;11.25;5.65;;;19.90;55.10;;;;;;5017291;28;20056;-56
2022/07/05 07:32:52;;;;;;;14.40;5.97;;;19.90;55.00;;;;;;5012781;28;20405;-56
2022/07/05 07:35:20;;;;;;;10.75;6.05;;;20.00;55.10;;;;;;5018215;28;20060;-54
2022/07/05 07:37:49;;;;;;;9.63;4.90;;;20.00;54.60;;;;;;5017197;28;20053;-58
2022/07/05 07:40:17;;;;;;;16.17;5.60;;;20.00;54.50;;;;;;5019269;28;20061;-53
2022/07/05 07:42:45;;;;;;;8.73;4.88;;;20.10;54.40;;;;;;5016233;28;20054;-59
2022/07/05 07:45:12;;;;;;;5.40;4.70;;;20.20;54.60;;;;;;5016631;28;20053;-55
2022/07/05 07:47:40;;;;;;;8.50;4.75;;;20.20;54.10;;;;;;5013167;28;20045;-57
2022/07/05 07:50:08;;;;;;;7.85;4.05;;;20.30;53.20;;;;;;5020143;28;20062;-55
2022/07/05 07:52:36;;;;;;;6.97;4.40;;;20.30;53.60;;;;;;5014900;28;20050;-54
2022/07/05 07:55:06;;;;;;;8.57;4.32;;;20.40;53.70;;;;;;5014104;28;20062;-56
2022/07/05 07:57:34;;;;;;;7.22;4.05;;;20.40;53.10;;;;;;5015574;28;20060;-57
2022/07/05 08:00:02;;;;;;;6.50;3.55;;;20.50;53.00;;;;;;5016955;28;20056;-57
2022/07/05 08:02:29;;;;;;;6.75;3.72;;;20.60;53.00;;;;;;5015115;28;20045;-55
2022/07/05 08:04:57;;;;;;;5.22;3.25;;;20.60;52.10;;;;;;5018912;28;20049;-54
2022/07/05 08:07:25;;;;;;;7.97;3.53;;;20.60;52.70;;;;;;5012592;28;20057;-58
2022/07/05 08:09:53;;;;;;;10.40;4.25;;;20.70;52.50;;;;;;5018476;28;20064;-49
2022/07/05 08:12:22;;;;;;;8.38;3.55;;;20.80;52.20;;;;;;5020836;28;20048;-55
2022/07/05 08:14:49;;;;;;;7.82;3.75;;;20.80;51.30;;;;;;5015008;28;20049;-54
2022/07/05 08:17:17;;;;;;;6.25;3.60;;;20.80;51.40;;;;;;5013586;28;20057;-58
2022/07/05 08:22:29;;;;;;;7.30;3.92;;;20.90;51.60;;;;;;5022649;28;20060;-55
2022/07/05 08:24:57;;;;;;;3.65;2.70;;;20.90;50.50;;;;;;5018270;28;20445;-59
2022/07/05 08:27:26;;;;;;;11.70;3.28;;;20.90;51.10;;;;;;5015817;28;20520;-59
2022/07/05 08:29:54;;;;;;;7.82;3.88;;;21.00;50.60;;;;;;5019857;28;20489;-57
2022/07/05 08:32:21;;;;;;;9.95;2.88;;;21.10;50.20;;;;;;5013053;28;20379;-56
2022/07/05 08:34:49;;;;;;;7.70;3.75;;;21.20;50.60;;;;;;5012019;28;20056;-54
2022/07/05 08:37:16;;;;;;;4.60;2.92;;;21.20;49.70;;;;;;5011070;28;20045;-55
2022/07/05 08:39:44;;;;;;;7.18;4.13;;;21.20;49.20;;;;;;5020338;28;20057;-53
2022/07/05 08:42:13;;;;;;;13.00;3.22;;;21.30;49.70;;;;;;5014906;28;20462;-58
2022/07/05 08:44:44;;;;;;;7.93;3.35;;;21.30;49.60;;;;;;5010641;28;20072;-58
2022/07/05 08:47:12;;;;;;;5.93;3.20;;;21.40;49.20;;;;;;5016842;28;20404;-56
2022/07/05 08:49:41;;;;;;;5.03;2.60;;;21.40;49.10;;;;;;5022323;28;20057;-57
2022/07/05 08:52:12;;;;;;;6.72;2.60;;;21.50;48.40;;;;;;5023668;28;20054;-59
2022/07/05 08:54:39;;;;;;;11.13;3.65;;;21.60;48.60;;;;;;5025711;28;20061;-55
2022/07/05 08:57:07;;;;;;;9.57;3.78;;;21.60;48.70;;;;;;5018522;28;20059;-55
2022/07/05 08:59:34;;;;;;;5.75;3.65;;;21.70;49.10;;;;;;5023145;28;20053;-58
2022/07/05 09:02:04;;;;;;;6.07;3.20;;;21.70;48.00;;;;;;5021524;28;20785;-59
2022/07/05 09:04:37;;;;;;;6.25;2.92;;;21.80;48.40;;;;;;5019143;28;20409;-55
2022/07/05 09:07:07;;;;;;;9.02;3.50;;;21.80;48.60;;;;;;5020375;28;20057;-49
2022/07/05 09:09:38;;;;;;;10.32;3.92;;;21.90;48.80;;;;;;5018450;28;20049;-55
2022/07/05 09:12:07;;;;;;;12.07;4.22;;;21.90;48.80;;;;;;5023586;28;20045;-55
2022/07/05 09:14:35;;;;;;;7.97;3.47;;;22.00;47.20;;;;;;5024006;28;20053;-57
2022/07/05 09:17:05;;;;;;;4.90;2.90;;;22.00;47.70;;;;;;5019748;28;20057;-58
2022/07/05 09:19:34;;;;;;;6.78;3.08;;;22.10;48.50;;;;;;5018680;28;20092;-55
2022/07/05 09:22:04;;;;;;;7.07;3.00;;;22.20;47.80;;;;;;5024576;28;20425;-55
2022/07/05 09:24:32;;;;;;;5.47;3.67;;;22.30;47.00;;;;;;5020390;28;20417;-59
2022/07/05 09:27:06;;;;;;;6.45;3.30;;;22.30;47.00;;;;;;5019722;28;20405;-57
2022/07/05 09:29:33;;;;;;;6.65;3.20;;;22.40;47.60;;;;;;5020180;28;20405;-54
2022/07/05 09:32:02;;;;;;;9.90;4.07;;;22.50;48.20;;;;;;5021830;28;20083;-53
2022/07/05 09:34:30;;;;;;;9.18;4.32;;;22.50;46.80;;;;;;5023901;28;20064;-53
2022/07/05 09:36:59;;;;;;;7.93;3.97;;;22.60;47.10;;;;;;5022855;28;20065;-56
2022/07/05 09:39:38;;;;;;;4.90;3.15;;;22.60;46.90;;;;;;5023885;28;20057;-57
2022/07/05 09:42:19;;;;;;;8.88;3.70;;;22.70;47.00;;;;;;5020674;28;20058;-57
2022/07/05 09:44:47;;;;;;;4.03;2.88;;;22.80;46.10;;;;;;5016375;28;20065;-57
2022/07/05 09:47:17;;;;;;;5.47;2.67;;;22.80;45.10;;;;;;5018966;28;20053;-50
2022/07/05 09:49:47;;;;;;;5.97;3.33;;;22.90;45.60;;;;;;5024527;28;20494;-54
2022/07/05 09:52:28;;;;;;;5.85;2.88;;;22.90;45.30;;;;;;5024280;28;20428;-53
2022/07/05 09:55:02;;;;;;;5.97;2.88;;;22.90;45.80;;;;;;5016771;28;20493;-56
2022/07/05 09:57:30;;;;;;;7.18;3.20;;;23.00;45.80;;;;;;5014236;28;20087;-53
2022/07/05 10:00:02;;;;;;;5.40;2.30;;;23.00;44.50;;;;;;5015608;28;20053;-55
2022/07/05 10:02:39;;;;;;;7.22;3.55;;;23.00;44.70;;;;;;5011572;28;20053;-56
2022/07/05 10:05:12;;;;;;;5.03;2.60;;;23.10;43.30;;;;;;5007132;28;20429;-58
2022/07/05 10:07:41;;;;;;;8.65;2.67;;;23.20;44.60;;;;;;5010175;28;20061;-52
2022/07/05 10:10:10;;;;;;;8.00;2.80;;;23.20;43.90;;;;;;5018414;28;20073;-52
2022/07/05 10:12:38;;;;;;;5.95;2.47;;;23.30;43.10;;;;;;5016393;28;20530;-51
2022/07/05 10:15:10;;;;;;;5.43;2.17;;;23.30;43.40;;;;;;5017283;28;20054;-52
2022/07/05 10:17:42;;;;;;;9.45;2.55;;;23.30;43.10;;;;;;5019181;28;20061;-54
2022/07/05 10:20:17;;;;;;;5.32;2.80;;;23.30;42.20;;;;;;5020231;28;20068;-54
2022/07/05 10:22:45;;;;;;;5.72;2.40;;;23.30;42.00;;;;;;5019779;28;20116;-54
2022/07/05 10:25:14;;;;;;;2.80;1.80;;;23.40;42.60;;;;;;5022717;28;20057;-56
2022/07/05 10:27:42;;;;;;;5.63;2.67;;;23.40;43.20;;;;;;5019170;28;20060;-54
2022/07/05 10:30:12;;;;;;;4.88;1.88;;;23.50;41.90;;;;;;5024107;28;20057;-51
2022/07/05 10:32:41;;;;;;;4.93;2.50;;;23.60;43.00;;;;;;5022666;28;20053;-54
2022/07/05 10:35:10;;;;;;;5.68;2.10;;;23.70;40.10;;;;;;5023613;28;20501;-59
2022/07/05 10:37:37;;;;;;;5.03;2.28;;;23.70;40.60;;;;;;5019195;28;21003;-54
2022/07/05 10:40:07;;;;;;;4.57;2.30;;;23.80;41.60;;;;;;5023312;28;20053;-55
2022/07/05 10:42:41;;;;;;;5.20;1.75;;;23.70;41.40;;;;;;5019490;28;20053;-56
2022/07/05 10:45:25;;;;;;;6.30;2.33;;;23.80;41.80;;;;;;5023233;28;20064;-52
2022/07/05 10:48:22;;;;;;;6.78;2.00;;;23.80;40.70;;;;;;5022761;28;20053;-55
2022/07/05 10:50:52;;;;;;;3.33;1.63;;;23.80;39.00;;;;;;5021859;28;20061;-56
2022/07/05 10:53:22;;;;;;;5.65;1.65;;;23.80;39.10;;;;;;5022208;28;20053;-56
2022/07/05 10:55:55;;;;;;;4.57;1.67;;;23.90;40.30;;;;;;5017057;28;20053;-52
2022/07/05 10:58:28;;;;;;;2.75;1.65;;;24.00;40.90;;;;;;5022533;28;20060;-49
2022/07/05 11:01:38;;;;;;;5.50;2.08;;;24.00;41.20;;;;;;5020806;28;20053;-55
2022/07/05 11:04:32;;;;;;;9.32;2.38;;;24.00;40.50;;;;;;5019266;28;20053;-54
2022/07/05 11:07:00;;;;;;;8.63;1.75;;;24.00;39.70;;;;;;5010815;28;20125;-53
2022/07/05 11:09:28;;;;;;;4.18;1.90;;;24.10;39.70;;;;;;5022737;28;20064;-54
2022/07/05 11:12:07;;;;;;;3.97;1.73;;;24.10;39.50;;;;;;5021934;28;20072;-54
2022/07/05 11:14:38;;;;;;;4.22;1.80;;;24.10;39.00;;;;;;5019674;28;20405;-56
2022/07/05 11:17:22;;;;;;;3.33;1.50;;;24.20;39.00;;;;;;5021060;28;20056;-55
2022/07/05 11:20:26;;;;;;;4.72;1.60;;;24.20;40.20;;;;;;5022710;28;20061;-55
2022/07/05 11:23:07;;;;;;;2.73;1.60;;;24.40;39.50;;;;;;5019519;28;20421;-53
2022/07/05 11:25:38;;;;;;;2.10;1.40;;;24.40;37.60;;;;;;5021112;28;20492;-54
2022/07/05 11:28:08;;;;;;;5.90;1.80;;;24.40;39.00;;;;;;5021933;28;20084;-48
2022/07/05 11:30:50;;;;;;;4.85;1.60;;;24.40;37.70;;;;;;5021879;28;20064;-54
2022/07/05 11:33:32;;;;;;;8.23;1.60;;;24.40;38.20;;;;;;5018433;28;20060;-56
2022/07/05 11:36:01;;;;;;;2.75;1.40;;;24.40;36.60;;;;;;5019971;28;20528;-49
2022/07/05 11:38:30;;;;;;;2.55;1.30;;;24.40;36.40;;;;;;5021879;28;20065;-54
2022/07/05 11:41:11;;;;;;;4.07;1.58;;;24.40;36.70;;;;;;5022201;28;20057;-56
2022/07/05 11:43:38;;;;;;;4.25;1.85;;;24.40;37.00;;;;;;5018889;28;20053;-51
2022/07/05 11:46:06;;;;;;;2.30;1.60;;;24.40;37.40;;;;;;5020332;28;20148;-52
2022/07/05 11:48:33;;;;;;;6.47;1.98;;;24.40;37.00;;;;;;5022069;28;20069;-50
2022/07/05 11:51:13;;;;;;;3.30;1.58;;;24.40;36.40;;;;;;5022016;28;20053;-53
2022/07/05 11:53:43;;;;;;;3.97;1.42;;;24.40;36.50;;;;;;5018964;28;20440;-53
2022/07/05 11:56:11;;;;;;;2.97;1.58;;;24.50;37.30;;;;;;5018019;28;20054;-53
2022/07/05 11:58:38;;;;;;;2.63;1.38;;;24.50;35.10;;;;;;5021766;28;20068;-55
2022/07/05 12:01:07;;;;;;;6.68;2.05;;;24.50;36.80;;;;;;5021866;28;20057;-56
2022/07/05 12:03:35;;;;;;;7.70;1.98;;;24.60;36.20;;;;;;5016529;28;20409;-48
2022/07/05 12:06:14;;;;;;;2.13;1.45;;;24.60;34.80;;;;;;5019141;28;20061;-54
2022/07/05 12:08:41;;;;;;;4.43;1.70;;;24.60;35.10;;;;;;5021800;28;20064;-54
2022/07/05 12:13:56;;;;;;;5.57;2.55;;;24.70;34.90;;;;;;5025406;28;20543;-57
2022/07/05 12:16:25;;;;;;;2.67;1.40;;;24.70;35.20;;;;;;5020396;28;20055;-48
2022/07/05 12:18:54;;;;;;;4.90;1.70;;;24.60;35.30;;;;;;5021560;28;20068;-55
2022/07/05 12:21:24;;;;;;;7.82;1.88;;;24.70;36.00;;;;;;5021888;28;20068;-51
2022/07/05 12:23:52;;;;;;;4.18;1.80;;;24.70;36.50;;;;;;5018926;28;20058;-51
2022/07/05 12:26:21;;;;;;;5.05;1.58;;;24.70;35.40;;;;;;5023664;28;21238;-48
2022/07/05 12:28:51;;;;;;;4.18;1.50;;;24.80;34.40;;;;;;5025022;28;20498;-53
2022/07/05 12:31:20;;;;;;;4.32;1.65;;;24.80;35.80;;;;;;5024965;28;20053;-53
2022/07/05 12:33:48;;;;;;;2.17;1.35;;;24.80;36.10;;;;;;5022053;28;20084;-53
2022/07/05 12:36:17;;;;;;;6.15;1.42;;;24.90;35.60;;;;;;5023946;28;20049;-54
2022/07/05 12:38:46;;;;;;;6.85;1.92;;;25.00;34.90;;;;;;5025535;28;20062;-51
2022/07/05 12:41:23;;;;;;;2.63;1.40;;;25.00;35.10;;;;;;5025792;28;20083;-53
2022/07/05 12:43:53;;;;;;;8.43;1.60;;;25.00;36.30;;;;;;5021375;28;20053;-49
2022/07/05 12:46:21;;;;;;;3.00;1.60;;;25.10;35.00;;;;;;5021033;28;20061;-54
2022/07/05 12:48:54;;;;;;;2.08;1.30;;;25.10;34.50;;;;;;5025116;28;20505;-48
2022/07/05 12:51:35;;;;;;;6.72;1.63;;;25.10;34.60;;;;;;5022983;28;20072;-52
2022/07/05 12:59:39;;;;;;;7.45;1.70;;;25.10;35.20;;;;;;5022980;28;20068;-58
2022/07/05 13:02:07;;;;;;;3.78;1.60;;;25.10;33.80;;;;;;5022303;28;20053;-53
2022/07/05 13:04:35;;;;;;;5.47;1.50;;;25.10;34.50;;;;;;5025244;28;20050;-56
2022/07/05 13:07:04;;;;;;;2.83;1.60;;;25.10;34.60;;;;;;5022133;28;20057;-54
2022/07/05 13:09:35;;;;;;;5.43;1.67;;;25.10;35.20;;;;;;5025042;28;20058;-55
2022/07/05 13:12:10;;;;;;;3.70;1.70;;;25.10;35.30;;;;;;5024950;28;20053;-57